createdAt,value
2023-04-19T00:00:18.622Z,99945.50
2023-04-19T00:02:49.610Z,99944.47
2023-04-19T00:05:22.487Z,99943.03
2023-04-19T00:07:51.063Z,99941.22
2023-04-19T00:10:19.441Z,99927.66
2023-04-19T00:12:47.809Z,99923.81
2023-04-19T00:15:16.136Z,99927.66
2023-04-19T00:17:44.816Z,99928.03
2023-04-19T00:20:13.507Z,99922.28
2023-04-19T00:22:43.263Z,99928.63
2023-04-19T00:25:11.530Z,99916.97
2023-04-19T00:27:39.654Z,99913.59
2023-04-19T00:30:08.851Z,99914.84
2023-04-19T00:32:37.047Z,99916.91
2023-04-19T00:35:05.469Z,99916.72
2023-04-19T00:37:33.713Z,99916.81
2023-04-19T00:40:04.493Z,99917.94
2023-04-19T00:42:33.649Z,99909.13
2023-04-19T00:45:01.651Z,99905.44
2023-04-19T00:47:30.310Z,99907.06
2023-04-19T00:49:58.564Z,99911.78
2023-04-19T00:52:27.500Z,99901.75
2023-04-19T00:54:56.997Z,99904.94
2023-04-19T00:57:26.707Z,99906.56
2023-04-19T00:59:56.888Z,99902.03
2023-04-19T01:02:25.317Z,99900.06
2023-04-19T01:04:53.979Z,99905.38
2023-04-19T01:07:22.066Z,99889.78
2023-04-19T01:09:50.625Z,99896.56
2023-04-19T01:12:18.832Z,99891.16
2023-04-19T01:14:48.828Z,99895.13
2023-04-19T01:17:18.439Z,99889.44
2023-04-19T01:19:47.444Z,99885.16
2023-04-19T01:22:19.896Z,99890.38
2023-04-19T01:24:47.974Z,99894.84
2023-04-19T01:27:17.621Z,99893.69
2023-04-19T01:29:46.226Z,99897.78
2023-04-19T01:32:14.599Z,99898.50
2023-04-19T01:34:43.285Z,99887.44
2023-04-19T01:37:11.596Z,99889.91
2023-04-19T01:39:41.127Z,99892.41
2023-04-19T01:42:09.344Z,99886.88
2023-04-19T01:44:37.765Z,99881.19
2023-04-19T01:47:07.078Z,99888.28
2023-04-19T01:49:35.577Z,99880.16
2023-04-19T01:52:03.689Z,99880.63
2023-04-19T01:54:31.922Z,99878.72
2023-04-19T01:57:01.595Z,99882.72
2023-04-19T01:59:30.008Z,99882.63
2023-04-19T02:01:58.156Z,99877.59
2023-04-19T02:04:28.166Z,99882.00
2023-04-19T02:06:56.264Z,99873.91
2023-04-19T02:09:24.563Z,99871.31
2023-04-19T02:11:52.714Z,99868.94
2023-04-19T02:14:22.471Z,99869.50
2023-04-19T02:16:50.692Z,99871.66
2023-04-19T02:19:19.299Z,99859.34
2023-04-19T02:21:48.880Z,99864.50
2023-04-19T02:24:17.267Z,99864.22
2023-04-19T02:26:45.860Z,99854.81
2023-04-19T02:29:14.292Z,99853.03
2023-04-19T02:31:45.705Z,99855.78
2023-04-19T02:34:14.326Z,99854.81
2023-04-19T02:36:42.543Z,99854.63
2023-04-19T02:39:10.743Z,99846.25
2023-04-19T02:41:39.123Z,99853.34
2023-04-19T02:44:07.177Z,99843.91
2023-04-19T02:46:35.477Z,99844.19
2023-04-19T02:49:07.124Z,99842.56
2023-04-19T02:51:35.438Z,99848.50
2023-04-19T02:54:03.792Z,99838.19
2023-04-19T02:56:31.928Z,99845.44
2023-04-19T02:59:02.001Z,99833.59
2023-04-19T03:01:30.647Z,99825.91
2023-04-19T03:03:59.735Z,99829.13
2023-04-19T03:06:30.027Z,99829.16
2023-04-19T03:08:58.144Z,99827.69
2023-04-19T03:11:26.573Z,99824.59
2023-04-19T03:13:56.173Z,99823.19
2023-04-19T03:16:26.720Z,99818.81
2023-04-19T03:18:55.330Z,99831.50
2023-04-19T03:21:27.509Z,99821.09
2023-04-19T03:23:58.324Z,99817.13
2023-04-19T03:26:27.196Z,99816.00
2023-04-19T03:28:56.189Z,99813.06
2023-04-19T03:31:24.691Z,99811.91
2023-04-19T03:33:52.872Z,99811.81
2023-04-19T03:36:20.902Z,99810.88
2023-04-19T03:38:49.001Z,99806.53
2023-04-19T03:41:22.900Z,99805.31
2023-04-19T03:43:51.240Z,99804.19
2023-04-19T03:46:21.648Z,99798.50
2023-04-19T03:48:50.106Z,99805.41
2023-04-19T03:51:18.518Z,99797.72
2023-04-19T03:53:47.634Z,99800.66
2023-04-19T03:56:16.048Z,99793.88
2023-04-19T03:58:45.646Z,99794.59
2023-04-19T04:01:22.240Z,99790.53
2023-04-19T04:03:50.753Z,99801.41
2023-04-19T04:06:19.234Z,99790.28
2023-04-19T04:08:47.841Z,99792.44
2023-04-19T04:11:16.006Z,99782.34
2023-04-19T04:13:47.337Z,99787.63
2023-04-19T04:16:15.502Z,99786.78
2023-04-19T04:18:43.974Z,99787.78
2023-04-19T04:21:12.127Z,99794.47
2023-04-19T04:23:40.714Z,99798.22
2023-04-19T04:26:10.176Z,99791.50
2023-04-19T04:28:38.341Z,99787.50
2023-04-19T04:31:13.264Z,99783.09
2023-04-19T04:33:41.873Z,99799.44
2023-04-19T04:36:12.137Z,99792.91
2023-04-19T04:38:40.304Z,99792.56
2023-04-19T04:41:08.954Z,99798.19
2023-04-19T04:43:38.502Z,99789.34
2023-04-19T04:46:09.203Z,99793.16
2023-04-19T04:48:37.686Z,99793.53
2023-04-19T04:51:06.158Z,99787.53
2023-04-19T04:53:34.852Z,99798.84
2023-04-19T04:56:03.275Z,99795.56
2023-04-19T04:58:31.424Z,99794.94
2023-04-19T05:01:00.204Z,99787.22
2023-04-19T05:03:30.357Z,99784.09
2023-04-19T05:05:58.436Z,99792.91
2023-04-19T05:08:26.966Z,99799.31
2023-04-19T05:10:55.450Z,99788.47
2023-04-19T05:13:23.591Z,99793.38
2023-04-19T05:15:51.622Z,99786.06
2023-04-19T05:18:20.059Z,99791.50
2023-04-19T05:20:49.790Z,99786.63
2023-04-19T05:23:19.190Z,99795.03
2023-04-19T05:25:47.886Z,99791.28
2023-04-19T05:28:16.000Z,99794.47
2023-04-19T05:30:44.248Z,99794.94
2023-04-19T05:33:12.667Z,99793.06
2023-04-19T05:35:41.127Z,99788.78
2023-04-19T05:38:10.913Z,99789.09
2023-04-19T05:40:40.417Z,99784.84
2023-04-19T05:43:08.781Z,99782.88
2023-04-19T05:45:36.892Z,99775.66
2023-04-19T05:48:05.568Z,99784.84
2023-04-19T05:50:34.076Z,99783.22
2023-04-19T05:53:02.109Z,99770.44
2023-04-19T05:55:31.946Z,99772.00
2023-04-19T05:58:00.051Z,99770.84
2023-04-19T06:00:28.889Z,99774.63
2023-04-19T06:02:57.516Z,99772.16
2023-04-19T06:05:26.314Z,99781.78
2023-04-19T06:08:02.627Z,99776.97
2023-04-19T06:10:44.525Z,99785.50
2023-04-19T06:13:20.789Z,99782.94
2023-04-19T06:15:49.240Z,99779.78
2023-04-19T06:18:19.543Z,99782.81
2023-04-19T06:20:48.612Z,99787.72
2023-04-19T06:23:18.749Z,99787.16
2023-04-19T06:25:49.312Z,99784.91
2023-04-19T06:28:17.501Z,99786.38
2023-04-19T06:30:45.679Z,99780.31
2023-04-19T06:33:13.842Z,99782.78
2023-04-19T06:35:42.258Z,99781.81
2023-04-19T06:38:10.414Z,99785.31
2023-04-19T06:40:38.575Z,99787.94
2023-04-19T06:43:08.081Z,99786.63
2023-04-19T06:45:36.563Z,99783.56
2023-04-19T06:48:05.221Z,99785.50
2023-04-19T06:50:33.398Z,99789.56
2023-04-19T06:53:04.088Z,99785.03
2023-04-19T06:55:34.164Z,99781.66
2023-04-19T06:58:02.221Z,99786.38
2023-04-19T07:00:32.088Z,99784.50
2023-04-19T07:03:01.652Z,99782.16
2023-04-19T07:05:30.355Z,99786.97
2023-04-19T07:07:58.915Z,99778.47
2023-04-19T07:10:27.143Z,99774.09
2023-04-19T07:12:55.522Z,99772.06
2023-04-19T07:15:24.013Z,99777.72
2023-04-19T07:17:53.699Z,99773.28
2023-04-19T07:20:22.198Z,99761.84
2023-04-19T07:22:50.605Z,99763.63
2023-04-19T07:25:19.138Z,99759.78
2023-04-19T07:27:47.449Z,99762.28
2023-04-19T07:30:15.842Z,99756.97
2023-04-19T07:32:44.168Z,99763.63
2023-04-19T07:35:14.218Z,99763.69
2023-04-19T07:37:42.347Z,99762.66
2023-04-19T07:40:12.149Z,99756.19
2023-04-19T07:42:40.969Z,99760.78
2023-04-19T07:45:10.356Z,99753.78
2023-04-19T07:47:39.857Z,99762.69
2023-04-19T07:50:09.556Z,99750.97
2023-04-19T07:52:39.392Z,99753.94
2023-04-19T07:55:08.764Z,99745.75
2023-04-19T07:57:37.119Z,99753.38
2023-04-19T08:00:06.310Z,99757.13
2023-04-19T08:02:34.721Z,99754.03
2023-04-19T08:05:03.973Z,99758.59
2023-04-19T08:07:32.237Z,99745.00
2023-04-19T08:10:01.993Z,99757.13
2023-04-19T08:12:38.323Z,99756.25
2023-04-19T08:15:29.628Z,99764.84
2023-04-19T08:17:59.511Z,99759.72
2023-04-19T08:20:27.785Z,99763.28
2023-04-19T08:22:56.375Z,99761.03
2023-04-19T08:25:28.809Z,99763.50
2023-04-19T08:27:57.626Z,99765.81
2023-04-19T08:30:26.019Z,99767.09
2023-04-19T08:32:56.896Z,99762.44
2023-04-19T08:35:25.785Z,99763.72
2023-04-19T08:37:54.204Z,99757.63
2023-04-19T08:40:22.506Z,99765.75
2023-04-19T08:42:52.257Z,99755.94
2023-04-19T08:48:00.704Z,99748.34
2023-04-19T08:50:37.111Z,99750.25
2023-04-19T08:53:23.807Z,99749.13
2023-04-19T08:56:12.926Z,99748.16
2023-04-19T09:01:33.629Z,99737.94
2023-04-19T09:04:25.961Z,99738.84
2023-04-19T09:06:54.608Z,99741.81
2023-04-19T09:11:59.698Z,99729.41
2023-04-19T09:14:31.712Z,99735.97
2023-04-19T09:17:14.888Z,99725.47
2023-04-19T09:19:52.133Z,99730.75
2023-04-19T09:22:20.509Z,99728.06
2023-04-19T09:27:27.737Z,99720.84
2023-04-19T09:30:00.712Z,99724.84
2023-04-19T09:32:31.880Z,99717.72
2023-04-19T09:35:01.901Z,99722.13
2023-04-19T09:37:56.814Z,99717.66
2023-04-19T09:40:27.415Z,99713.94
2023-04-19T09:45:31.241Z,99706.38
2023-04-19T09:48:04.483Z,99707.25
2023-04-19T09:50:34.030Z,99704.78
2023-04-19T09:53:07.922Z,99703.03
2023-04-19T09:55:48.612Z,99700.81
2023-04-19T09:58:29.394Z,99700.22
2023-04-19T10:01:14.967Z,99698.91
2023-04-19T10:03:46.363Z,99701.38
2023-04-19T10:06:35.662Z,99696.28
2023-04-19T10:09:07.421Z,99690.81
2023-04-19T10:11:41.540Z,99684.81
2023-04-19T10:14:12.565Z,99686.03
2023-04-19T10:16:42.334Z,99683.03
2023-04-19T10:19:13.508Z,99685.50
2023-04-19T10:21:43.865Z,99681.63
2023-04-19T10:24:15.542Z,99677.19
2023-04-19T10:27:12.370Z,99674.94
2023-04-19T10:29:56.456Z,99668.75
2023-04-19T10:32:28.537Z,99667.44
2023-04-19T10:34:57.005Z,99658.22
2023-04-19T10:37:27.579Z,99662.81
2023-04-19T10:39:56.328Z,99667.00
2023-04-19T10:42:24.530Z,99653.97
2023-04-19T10:45:35.189Z,99654.88
2023-04-19T10:48:06.373Z,99662.75
2023-04-19T10:51:00.134Z,99662.88
2023-04-19T10:53:48.477Z,99656.53
2023-04-19T10:56:18.053Z,99634.91
2023-04-19T10:59:22.949Z,99637.16
2023-04-19T11:01:54.079Z,99640.63
2023-04-19T11:04:47.900Z,99629.94
2023-04-19T11:07:18.493Z,99627.53
2023-04-19T11:09:47.648Z,99625.97
2023-04-19T11:12:16.949Z,99621.88
2023-04-19T11:14:47.091Z,99622.81
2023-04-19T11:17:23.148Z,99614.41
2023-04-19T11:19:58.107Z,99609.78
2023-04-19T11:22:28.363Z,99598.28
2023-04-19T11:24:56.394Z,99607.84
2023-04-19T11:27:26.262Z,99603.72
2023-04-19T11:30:04.449Z,99586.94
2023-04-19T11:32:33.786Z,99597.78
2023-04-19T11:35:09.048Z,99595.69
2023-04-19T11:37:40.651Z,99591.59
2023-04-19T11:40:10.835Z,99575.97
2023-04-19T11:42:39.630Z,99572.38
2023-04-19T11:45:18.659Z,99565.94
2023-04-19T11:47:55.035Z,99576.00
2023-04-19T11:50:35.296Z,99566.91
2023-04-19T11:53:13.174Z,99564.88
2023-04-19T11:55:44.439Z,99562.38
2023-04-19T11:58:29.696Z,99556.78
2023-04-19T12:01:01.060Z,99550.81
2023-04-19T12:03:29.543Z,99554.72
2023-04-19T12:06:01.066Z,99549.91
2023-04-19T12:08:34.367Z,99556.34
2023-04-19T12:11:03.732Z,99545.94
2023-04-19T12:13:32.558Z,99540.94
2023-04-19T12:16:02.686Z,99535.88
2023-04-19T12:18:45.477Z,99543.16
2023-04-19T12:21:26.545Z,99535.00
2023-04-19T12:23:58.722Z,99542.25
2023-04-19T12:26:28.533Z,99537.53
2023-04-19T12:28:57.752Z,99529.38
2023-04-19T12:31:26.086Z,99535.50
2023-04-19T12:33:54.550Z,99522.38
2023-04-19T12:36:24.332Z,99530.72
2023-04-19T12:38:52.682Z,99533.88
2023-04-19T12:41:21.317Z,99528.25
2023-04-19T12:43:49.946Z,99532.78
2023-04-19T12:46:18.519Z,99524.25
2023-04-19T12:48:46.826Z,99522.34
2023-04-19T12:51:16.340Z,99530.84
2023-04-19T12:53:52.039Z,99532.47
2023-04-19T12:56:20.334Z,99523.31
2023-04-19T12:58:48.688Z,99523.13
2023-04-19T13:01:17.214Z,99512.13
2023-04-19T13:03:45.530Z,99527.91
2023-04-19T13:06:15.601Z,99522.75
2023-04-19T13:08:46.505Z,99524.94
2023-04-19T13:11:23.198Z,99523.56
2023-04-19T13:13:54.343Z,99513.34
2023-04-19T13:16:23.359Z,99517.69
2023-04-19T13:18:52.889Z,99513.19
2023-04-19T13:21:21.710Z,99512.91
2023-04-19T13:23:50.057Z,99505.50
2023-04-19T13:26:19.616Z,99497.84
2023-04-19T13:28:47.815Z,99490.72
2023-04-19T13:31:16.060Z,99493.28
2023-04-19T13:33:44.682Z,99487.28
2023-04-19T13:36:13.079Z,99493.88
2023-04-19T13:38:41.308Z,99477.59
2023-04-19T13:41:09.614Z,99484.84
2023-04-19T13:43:39.644Z,99462.91
2023-04-19T13:46:07.886Z,99467.16
2023-04-19T13:48:36.255Z,99460.94
2023-04-19T13:51:04.724Z,99460.28
2023-04-19T13:53:33.164Z,99451.53
2023-04-19T13:56:01.357Z,99447.25
2023-04-19T13:58:29.396Z,99452.91
2023-04-19T14:00:59.108Z,99433.06
2023-04-19T14:03:27.637Z,99437.88
2023-04-19T14:05:56.764Z,99441.94
2023-04-19T14:08:24.876Z,99450.09
2023-04-19T14:10:53.064Z,99450.09
2023-04-19T14:13:22.746Z,99445.72
2023-04-19T14:15:50.991Z,99437.69
2023-04-19T14:18:20.671Z,99438.97
2023-04-19T14:20:49.452Z,99440.91
2023-04-19T14:23:18.152Z,99429.31
2023-04-19T14:25:46.368Z,99420.53
2023-04-19T14:28:14.827Z,99425.66
2023-04-19T14:30:43.250Z,99422.00
2023-04-19T14:33:11.925Z,99426.25
2023-04-19T14:35:43.098Z,99425.03
2023-04-19T14:38:11.433Z,99417.53
2023-04-19T14:40:39.813Z,99418.31
2023-04-19T14:43:07.816Z,99409.88
2023-04-19T14:45:36.213Z,99407.34
2023-04-19T14:48:04.572Z,99417.41
2023-04-19T14:50:32.699Z,99418.34
2023-04-19T14:53:02.375Z,99411.00
2023-04-19T14:55:30.601Z,99405.19
2023-04-19T14:57:58.715Z,99402.66
2023-04-19T15:00:27.014Z,99418.44
2023-04-19T15:02:55.486Z,99412.69
2023-04-19T15:05:25.245Z,99404.59
2023-04-19T15:07:53.941Z,99408.59
2023-04-19T15:10:23.420Z,99409.03
2023-04-19T15:12:51.636Z,99409.53
2023-04-19T15:15:20.026Z,99407.44
2023-04-19T15:17:48.216Z,99411.41
2023-04-19T15:20:16.969Z,99411.13
2023-04-19T15:22:45.231Z,99411.81
2023-04-19T15:25:17.095Z,99413.31
2023-04-19T15:27:46.551Z,99410.59
2023-04-19T15:30:15.461Z,99405.63
2023-04-19T15:32:44.654Z,99406.47
2023-04-19T15:35:13.189Z,99418.19
2023-04-19T15:37:42.093Z,99413.22
2023-04-19T15:40:12.724Z,99412.50
2023-04-19T15:42:41.326Z,99412.41
2023-04-19T15:45:12.418Z,99410.81
2023-04-19T15:47:40.966Z,99409.00
2023-04-19T15:50:11.220Z,99411.28
2023-04-19T15:52:39.312Z,99416.22
2023-04-19T15:55:07.990Z,99413.72
2023-04-19T15:57:36.089Z,99413.69
2023-04-19T16:00:05.487Z,99415.44
2023-04-19T16:02:37.539Z,99408.19
2023-04-19T16:05:06.635Z,99410.97
2023-04-19T16:07:35.157Z,99401.56
2023-04-19T16:10:03.609Z,99403.63
2023-04-19T16:12:31.811Z,99404.41
2023-04-19T16:15:00.446Z,99399.81
2023-04-19T16:17:28.574Z,99396.44
2023-04-19T16:19:58.455Z,99406.47
2023-04-19T16:22:26.572Z,99398.47
2023-04-19T16:24:55.621Z,99401.78
2023-04-19T16:27:23.877Z,99401.38
2023-04-19T16:29:52.108Z,99407.06
2023-04-19T16:32:22.049Z,99405.28
2023-04-19T16:34:50.724Z,99401.34
2023-04-19T16:37:20.849Z,99396.84
2023-04-19T16:39:49.079Z,99409.00
2023-04-19T16:42:17.525Z,99404.34
2023-04-19T16:44:46.670Z,99402.19
2023-04-19T16:47:15.086Z,99395.31
2023-04-19T16:49:43.584Z,99400.09
2023-04-19T16:52:11.774Z,99399.53
2023-04-19T16:54:41.472Z,99398.38
2023-04-19T16:57:10.398Z,99388.66
2023-04-19T16:59:38.717Z,99402.31
2023-04-19T17:02:08.487Z,99398.13
2023-04-19T17:04:37.439Z,99393.03
2023-04-19T17:07:05.828Z,99385.72
2023-04-19T17:09:34.550Z,99391.50
2023-04-19T17:12:04.563Z,99385.31
2023-04-19T17:14:32.971Z,99386.28
2023-04-19T17:17:02.820Z,99383.44
2023-04-19T17:19:31.190Z,99385.84
2023-04-19T17:22:05.278Z,99381.19
2023-04-19T17:24:33.803Z,99382.25
2023-04-19T17:27:03.725Z,99389.38
2023-04-19T17:29:32.699Z,99391.63
2023-04-19T17:32:01.541Z,99391.94
2023-04-19T17:34:30.053Z,99398.69
2023-04-19T17:37:00.387Z,99392.59
2023-04-19T17:39:29.158Z,99398.91
2023-04-19T17:41:57.911Z,99391.44
2023-04-19T17:44:27.955Z,99396.75
2023-04-19T17:46:56.660Z,99401.59
2023-04-19T17:49:26.733Z,99390.50
2023-04-19T17:51:56.905Z,99394.25
2023-04-19T17:54:25.348Z,99396.75
2023-04-19T17:56:54.727Z,99393.88
2023-04-19T17:59:22.808Z,99396.00
2023-04-19T18:01:52.711Z,99397.44
2023-04-19T18:04:21.830Z,99391.91
2023-04-19T18:06:50.251Z,99397.41
2023-04-19T18:09:19.409Z,99397.94
2023-04-19T18:11:47.959Z,99399.50
2023-04-19T18:14:16.452Z,99390.91
2023-04-19T18:16:44.831Z,99405.47
2023-04-19T18:19:15.234Z,99409.59
2023-04-19T18:21:43.881Z,99401.25
2023-04-19T18:24:12.307Z,99407.66
2023-04-19T18:26:42.660Z,99406.06
2023-04-19T18:29:12.393Z,99407.59
2023-04-19T18:31:40.850Z,99401.16
2023-04-19T18:34:11.273Z,99404.13
2023-04-19T18:36:42.311Z,99407.78
2023-04-19T18:39:10.741Z,99404.75
2023-04-19T18:41:39.041Z,99403.00
2023-04-19T18:44:35.419Z,99410.84
2023-04-19T18:46:55.656Z,99404.25
2023-04-19T18:49:23.889Z,99412.75
2023-04-19T18:51:53.764Z,99422.75
2023-04-19T18:54:21.859Z,99415.94
2023-04-19T18:57:21.183Z,99418.88
2023-04-19T18:59:38.757Z,99414.63
2023-04-19T19:02:07.464Z,99415.47
2023-04-19T19:04:51.239Z,99414.13
2023-04-19T19:09:57.128Z,99416.28
2023-04-19T19:12:25.688Z,99417.38
2023-04-19T19:14:54.077Z,99420.22
2023-04-19T19:17:24.551Z,99417.06
2023-04-19T19:19:52.724Z,99417.03
2023-04-19T19:22:27.923Z,99425.09
2023-04-19T19:24:58.085Z,99424.69
2023-04-19T19:27:26.527Z,99421.19
2023-04-19T19:29:55.063Z,99426.81
2023-04-19T19:32:23.455Z,99418.50
2023-04-19T19:34:56.584Z,99420.66
2023-04-19T19:37:30.676Z,99421.69
2023-04-19T19:40:04.167Z,99416.41
2023-04-19T19:42:34.439Z,99418.06
2023-04-19T19:45:04.302Z,99412.44
2023-04-19T19:47:35.520Z,99417.53
2023-04-19T19:50:46.633Z,99415.63
2023-04-19T19:52:53.940Z,99422.31
2023-04-19T19:55:24.206Z,99418.53
2023-04-19T20:00:44.061Z,99421.19
2023-04-19T20:03:12.807Z,99413.28
2023-04-19T20:05:41.394Z,99415.84
2023-04-19T20:08:12.027Z,99419.53
2023-04-19T20:10:44.259Z,99417.22
2023-04-19T20:13:13.411Z,99412.03
2023-04-19T20:15:42.458Z,99408.59
2023-04-19T20:18:10.835Z,99410.78
2023-04-19T20:20:39.131Z,99414.16
2023-04-19T20:23:07.386Z,99411.53
2023-04-19T20:25:35.588Z,99397.78
2023-04-19T20:28:07.049Z,99399.03
2023-04-19T20:30:36.477Z,99397.69
2023-04-19T20:33:05.072Z,99403.34
2023-04-19T20:35:34.743Z,99395.34
2023-04-19T20:38:03.496Z,99395.16
2023-04-19T20:40:33.260Z,99399.91
2023-04-19T20:43:01.629Z,99388.78
2023-04-19T20:45:31.600Z,99390.88
2023-04-19T20:47:59.837Z,99383.66
2023-04-19T20:50:28.303Z,99388.88
2023-04-19T20:52:56.792Z,99386.41
2023-04-19T20:55:25.406Z,99379.53
2023-04-19T20:57:54.020Z,99375.06
2023-04-19T21:00:22.549Z,99373.44
2023-04-19T21:02:52.552Z,99367.19
2023-04-19T21:05:21.103Z,99362.75
2023-04-19T21:07:49.316Z,99365.84
2023-04-19T21:10:17.507Z,99354.84
2023-04-19T21:12:46.135Z,99359.44
2023-04-19T21:15:14.174Z,99353.09
2023-04-19T21:17:42.851Z,99345.50
2023-04-19T21:20:15.965Z,99348.75
2023-04-19T21:22:45.832Z,99350.59
2023-04-19T21:25:14.717Z,99345.50
2023-04-19T21:27:43.860Z,99338.31
2023-04-19T21:30:14.438Z,99336.94
2023-04-19T21:32:42.906Z,99340.72
2023-04-19T21:35:12.586Z,99339.56
2023-04-19T21:37:41.147Z,99335.56
2023-04-19T21:40:10.326Z,99344.84
2023-04-19T21:42:38.870Z,99337.03
2023-04-19T21:45:08.544Z,99333.75
2023-04-19T21:47:36.780Z,99333.50
2023-04-19T21:50:05.512Z,99333.31
2023-04-19T21:52:35.664Z,99327.97
2023-04-19T21:55:03.860Z,99326.78
2023-04-19T21:57:31.948Z,99327.28
2023-04-19T22:00:00.297Z,99328.34
2023-04-19T22:02:28.511Z,99335.22
2023-04-19T22:04:56.794Z,99319.91
2023-04-19T22:07:25.420Z,99327.03
2023-04-19T22:09:55.152Z,99329.75
2023-04-19T22:12:23.592Z,99318.50
2023-04-19T22:14:52.140Z,99312.91
2023-04-19T22:17:20.923Z,99314.69
2023-04-19T22:19:49.160Z,99315.66
2023-04-19T22:22:17.455Z,99312.66
2023-04-19T22:24:57.039Z,99324.88
2023-04-19T22:27:27.255Z,99304.16
2023-04-19T22:29:55.593Z,99312.56
2023-04-19T22:32:24.065Z,99302.97
2023-04-19T22:34:52.131Z,99299.13
2023-04-19T22:37:20.614Z,99299.69
2023-04-19T22:39:48.669Z,99295.75
2023-04-19T22:42:17.239Z,99283.50
2023-04-19T22:44:46.755Z,99289.44
2023-04-19T22:47:16.634Z,99290.38
2023-04-19T22:49:45.225Z,99292.91
2023-04-19T22:52:14.654Z,99288.72
2023-04-19T22:54:43.060Z,99291.50
2023-04-19T22:57:12.145Z,99288.47
2023-04-19T22:59:40.452Z,99283.81
2023-04-19T23:02:10.009Z,99275.63
2023-04-19T23:04:39.490Z,99274.28
2023-04-19T23:07:08.360Z,99269.84
2023-04-19T23:09:39.490Z,99270.94
2023-04-19T23:12:08.551Z,99272.69
2023-04-19T23:14:38.708Z,99272.28
2023-04-19T23:17:07.548Z,99265.50
2023-04-19T23:19:38.875Z,99260.53
2023-04-19T23:22:07.594Z,99259.41
2023-04-19T23:24:37.060Z,99259.16
2023-04-19T23:27:05.450Z,99257.41
2023-04-19T23:29:33.515Z,99254.81
2023-04-19T23:32:02.642Z,99251.81
2023-04-19T23:34:30.782Z,99255.56
2023-04-19T23:37:00.871Z,99250.47
2023-04-19T23:39:29.709Z,99246.22
2023-04-19T23:41:58.079Z,99251.00
2023-04-19T23:44:27.063Z,99249.34
2023-04-19T23:46:55.226Z,99246.94
2023-04-19T23:49:23.643Z,99236.75
2023-04-19T23:51:51.753Z,99238.84
2023-04-19T23:54:25.822Z,99235.16
2023-04-19T23:56:54.574Z,99230.22
2023-04-19T23:59:26.880Z,99221.53
